ENSE

Snorre A Oilp

Snorre A Oilp, Norway
METAR ENSE 190850Z AUTO 19033KT 9999NDV FEW022/// BKN040/// BKN045/// 10/07 Q1015 W///S5
Observed Flight Rules
Oct-19 @ 08:50 UTC (23 minutes ago)
Wind Clouds
190° at 33 knots
  • Few at 2,200' AGL
  • Broken at 4,000' AGL
  • Broken at 4,500' AGL
Temperatures Readings
Current 10°C / 50°F
Dewpoint 7°C / 45°F
Humidity 82%
Altimeter 29.97" Hg
Pressure 1015 hPa
Elevation 10
METAR ENSE 190850Z AUTO 19033KT 9999NDV FEW022/// BKN040/// BKN045/// 10/07 Q1015 W///S5
Observed Flight Rules
Oct-19 @ 08:50 UTC
(23 minutes ago)
Wind
190° at 33 knots
Clouds
  • Few at 2,200' AGL
  • Broken at 4,000' AGL
  • Broken at 4,500' AGL
Temperature Dewpoint
10°C / 50°F 7°C / 45°F
Humidity Altimeter Pressure
82% 29.97" Hg 1015 hPa